sensor_id;sensor_type;location;lat;lon;timestamp;pressure;altitude;pressure_sealevel;temperature;humidity
47260;BME280;32999;52.412;4.890;2022-09-09T00:04:43;100702.91;;;16.96;100.00
47260;BME280;32999;52.412;4.890;2022-09-09T00:09:59;100698.47;;;17.02;100.00
47260;BME280;32999;52.412;4.890;2022-09-09T00:15:05;100705.28;;;17.05;100.00
47260;BME280;32999;52.412;4.890;2022-09-09T00:20:13;100686.38;;;17.05;100.00
47260;BME280;32999;52.412;4.890;2022-09-09T00:25:22;100673.66;;;16.93;100.00
47260;BME280;32999;52.412;4.890;2022-09-09T00:30:27;100691.28;;;17.08;100.00
47260;BME280;32999;52.412;4.890;2022-09-09T00:35:34;100665.31;;;16.95;100.00
47260;BME280;32999;52.412;4.890;2022-09-09T00:40:41;100675.66;;;16.98;100.00
47260;BME280;32999;52.412;4.890;2022-09-09T00:45:59;100662.13;;;16.86;100.00
47260;BME280;32999;52.412;4.890;2022-09-09T00:51:12;100698.09;;;16.98;100.00
47260;BME280;32999;52.412;4.890;2022-09-09T00:56:20;100672.09;;;16.86;100.00
47260;BME280;32999;52.412;4.890;2022-09-09T01:01:24;100695.34;;;16.87;100.00
47260;BME280;32999;52.412;4.890;2022-09-09T01:06:30;100697.72;;;16.95;100.00
47260;BME280;32999;52.412;4.890;2022-09-09T01:11:42;100679.50;;;16.79;100.00
47260;BME280;32999;52.412;4.890;2022-09-09T01:16:51;100690.03;;;16.69;100.00
47260;BME280;32999;52.412;4.890;2022-09-09T01:21:58;100693.69;;;16.74;100.00
47260;BME280;32999;52.412;4.890;2022-09-09T01:27:06;100700.38;;;16.83;100.00
47260;BME280;32999;52.412;4.890;2022-09-09T01:37:25;100680.81;;;16.88;100.00
47260;BME280;32999;52.412;4.890;2022-09-09T01:42:28;100685.59;;;16.74;100.00
47260;BME280;32999;52.412;4.890;2022-09-09T01:47:31;100683.03;;;16.79;100.00
47260;BME280;32999;52.412;4.890;2022-09-09T01:52:35;100687.59;;;16.79;100.00
47260;BME280;32999;52.412;4.890;2022-09-09T01:57:43;100663.09;;;16.80;100.00
47260;BME280;32999;52.412;4.890;2022-09-09T02:03:04;100656.88;;;16.80;100.00
47260;BME280;32999;52.412;4.890;2022-09-09T02:08:09;100603.09;;;16.37;100.00
47260;BME280;32999;52.412;4.890;2022-09-09T02:13:18;100672.03;;;16.62;100.00
47260;BME280;32999;52.412;4.890;2022-09-09T02:18:25;100653.03;;;16.57;100.00
47260;BME280;32999;52.412;4.890;2022-09-09T02:23:29;100656.25;;;16.48;100.00
47260;BME280;32999;52.412;4.890;2022-09-09T02:28:34;100640.75;;;16.31;100.00
47260;BME280;32999;52.412;4.890;2022-09-09T02:33:40;100620.84;;;16.14;100.00
47260;BME280;32999;52.412;4.890;2022-09-09T02:38:46;100617.53;;;16.12;100.00
47260;BME280;32999;52.412;4.890;2022-09-09T02:43:52;100644.50;;;16.42;100.00
47260;BME280;32999;52.412;4.890;2022-09-09T02:48:59;100654.22;;;16.31;100.00
47260;BME280;32999;52.412;4.890;2022-09-09T02:54:08;100603.75;;;15.72;100.00
47260;BME280;32999;52.412;4.890;2022-09-09T02:59:17;100653.25;;;15.78;100.00
47260;BME280;32999;52.412;4.890;2022-09-09T03:04:19;100641.53;;;15.84;100.00
47260;BME280;32999;52.412;4.890;2022-09-09T03:09:21;100656.16;;;15.76;100.00
47260;BME280;32999;52.412;4.890;2022-09-09T03:14:24;100663.25;;;15.71;100.00
47260;BME280;32999;52.412;4.890;2022-09-09T03:19:26;100645.31;;;15.83;100.00
47260;BME280;32999;52.412;4.890;2022-09-09T03:24:31;100657.63;;;15.90;100.00
47260;BME280;32999;52.412;4.890;2022-09-09T03:29:34;100646.94;;;15.65;100.00
47260;BME280;32999;52.412;4.890;2022-09-09T03:34:48;100641.88;;;15.76;100.00
47260;BME280;32999;52.412;4.890;2022-09-09T03:39:50;100650.22;;;15.86;100.00
47260;BME280;32999;52.412;4.890;2022-09-09T03:44:54;100628.22;;;15.89;100.00
47260;BME280;32999;52.412;4.890;2022-09-09T03:49:58;100617.88;;;15.86;100.00
47260;BME280;32999;52.412;4.890;2022-09-09T03:54:59;100617.53;;;15.82;100.00
47260;BME280;32999;52.412;4.890;2022-09-09T04:00:04;100608.19;;;15.67;100.00
47260;BME280;32999;52.412;4.890;2022-09-09T04:05:06;100619.44;;;15.93;100.00
47260;BME280;32999;52.412;4.890;2022-09-09T04:10:09;100604.28;;;15.81;100.00
47260;BME280;32999;52.412;4.890;2022-09-09T04:15:12;100622.81;;;15.89;100.00
47260;BME280;32999;52.412;4.890;2022-09-09T04:20:14;100611.28;;;16.00;100.00
47260;BME280;32999;52.412;4.890;2022-09-09T04:25:16;100602.09;;;15.89;100.00
47260;BME280;32999;52.412;4.890;2022-09-09T04:30:19;100589.69;;;15.70;100.00
47260;BME280;32999;52.412;4.890;2022-09-09T04:35:22;100599.34;;;15.59;100.00
47260;BME280;32999;52.412;4.890;2022-09-09T04:40:28;100590.47;;;15.59;100.00
47260;BME280;32999;52.412;4.890;2022-09-09T04:45:33;100575.84;;;15.67;100.00
47260;BME280;32999;52.412;4.890;2022-09-09T04:50:35;100562.09;;;15.56;100.00
47260;BME280;32999;52.412;4.890;2022-09-09T04:55:38;100526.41;;;15.06;100.00
47260;BME280;32999;52.412;4.890;2022-09-09T05:00:41;100546.06;;;15.25;100.00
47260;BME280;32999;52.412;4.890;2022-09-09T05:05:42;100588.72;;;15.64;100.00
47260;BME280;32999;52.412;4.890;2022-09-09T05:10:44;100481.97;;;14.79;100.00
47260;BME280;32999;52.412;4.890;2022-09-09T05:15:52;100596.94;;;15.70;100.00
47260;BME280;32999;52.412;4.890;2022-09-09T05:21:00;100573.69;;;15.75;100.00
47260;BME280;32999;52.412;4.890;2022-09-09T05:26:03;100466.38;;;15.06;100.00
47260;BME280;32999;52.412;4.890;2022-09-09T05:31:08;100587.19;;;15.87;100.00
47260;BME280;32999;52.412;4.890;2022-09-09T05:36:13;100596.31;;;15.86;100.00
47260;BME280;32999;52.412;4.890;2022-09-09T05:41:15;100571.34;;;16.09;100.00
47260;BME280;32999;52.412;4.890;2022-09-09T05:46:20;100567.72;;;15.85;100.00
47260;BME280;32999;52.412;4.890;2022-09-09T05:51:24;100571.03;;;15.87;100.00
47260;BME280;32999;52.412;4.890;2022-09-09T05:56:28;100598.72;;;15.94;100.00
47260;BME280;32999;52.412;4.890;2022-09-09T06:01:33;100584.59;;;15.80;100.00
47260;BME280;32999;52.412;4.890;2022-09-09T06:06:36;100589.13;;;15.98;100.00
47260;BME280;32999;52.412;4.890;2022-09-09T06:11:40;100470.38;;;15.15;100.00
47260;BME280;32999;52.412;4.890;2022-09-09T06:16:43;100475.78;;;15.63;100.00
47260;BME280;32999;52.412;4.890;2022-09-09T06:21:44;100576.25;;;16.30;100.00
47260;BME280;32999;52.412;4.890;2022-09-09T06:26:48;100596.75;;;16.31;100.00
47260;BME280;32999;52.412;4.890;2022-09-09T06:31:51;100531.03;;;16.14;100.00
47260;BME280;32999;52.412;4.890;2022-09-09T06:36:52;100572.41;;;16.61;100.00
47260;BME280;32999;52.412;4.890;2022-09-09T06:41:54;100581.09;;;16.51;100.00
47260;BME280;32999;52.412;4.890;2022-09-09T06:46:57;100521.25;;;16.43;100.00
47260;BME280;32999;52.412;4.890;2022-09-09T06:51:58;100464.59;;;16.19;100.00
47260;BME280;32999;52.412;4.890;2022-09-09T06:57:00;100607.31;;;17.44;100.00
47260;BME280;32999;52.412;4.890;2022-09-09T07:02:04;100493.13;;;16.85;100.00
47260;BME280;32999;52.412;4.890;2022-09-09T07:07:06;100514.47;;;17.22;100.00
47260;BME280;32999;52.412;4.890;2022-09-09T07:12:08;100470.56;;;17.15;100.00
47260;BME280;32999;52.412;4.890;2022-09-09T07:17:11;100561.69;;;17.59;100.00
47260;BME280;32999;52.412;4.890;2022-09-09T07:22:12;100462.72;;;17.02;100.00
47260;BME280;32999;52.412;4.890;2022-09-09T07:27:15;100566.28;;;17.59;100.00
47260;BME280;32999;52.412;4.890;2022-09-09T07:32:18;100522.06;;;17.37;100.00
47260;BME280;32999;52.412;4.890;2022-09-09T07:37:20;100527.34;;;17.43;100.00
47260;BME280;32999;52.412;4.890;2022-09-09T07:42:22;100574.06;;;17.67;100.00
47260;BME280;32999;52.412;4.890;2022-09-09T07:47:25;100490.84;;;17.29;100.00
47260;BME280;32999;52.412;4.890;2022-09-09T07:52:26;100482.75;;;17.29;100.00
47260;BME280;32999;52.412;4.890;2022-09-09T07:57:28;100573.47;;;18.05;100.00
47260;BME280;32999;52.412;4.890;2022-09-09T08:02:32;100568.94;;;18.11;100.00
47260;BME280;32999;52.412;4.890;2022-09-09T08:07:33;100589.53;;;18.12;100.00
47260;BME280;32999;52.412;4.890;2022-09-09T08:12:35;100563.03;;;17.97;100.00
47260;BME280;32999;52.412;4.890;2022-09-09T08:17:38;100474.53;;;17.24;100.00
47260;BME280;32999;52.412;4.890;2022-09-09T08:22:39;100527.78;;;17.92;100.00
47260;BME280;32999;52.412;4.890;2022-09-09T08:27:42;100557.41;;;18.15;100.00
47260;BME280;32999;52.412;4.890;2022-09-09T08:32:45;100577.94;;;18.28;100.00
47260;BME280;32999;52.412;4.890;2022-09-09T08:37:46;100566.66;;;18.48;100.00
47260;BME280;32999;52.412;4.890;2022-09-09T08:42:49;100478.53;;;18.07;100.00
47260;BME280;32999;52.412;4.890;2022-09-09T08:48:11;100579.09;;;18.49;100.00
47260;BME280;32999;52.412;4.890;2022-09-09T08:53:19;100499.22;;;17.56;100.00
47260;BME280;32999;52.412;4.890;2022-09-09T08:58:23;100581.22;;;18.30;100.00
47260;BME280;32999;52.412;4.890;2022-09-09T09:03:35;100472.34;;;18.06;100.00
47260;BME280;32999;52.412;4.890;2022-09-09T09:08:46;100544.84;;;18.71;100.00
47260;BME280;32999;52.412;4.890;2022-09-09T09:13:53;100605.13;;;18.83;100.00
47260;BME280;32999;52.412;4.890;2022-09-09T09:18:58;100516.25;;;17.96;100.00
47260;BME280;32999;52.412;4.890;2022-09-09T09:24:01;100594.94;;;18.57;100.00
47260;BME280;32999;52.412;4.890;2022-09-09T09:29:10;100594.06;;;18.23;100.00
47260;BME280;32999;52.412;4.890;2022-09-09T09:34:14;100557.69;;;18.30;100.00
47260;BME280;32999;52.412;4.890;2022-09-09T09:39:23;100591.22;;;18.75;100.00
47260;BME280;32999;52.412;4.890;2022-09-09T09:44:26;100567.34;;;18.72;100.00
47260;BME280;32999;52.412;4.890;2022-09-09T09:49:29;100587.41;;;18.92;100.00
47260;BME280;32999;52.412;4.890;2022-09-09T09:54:34;100486.94;;;18.05;100.00
47260;BME280;32999;52.412;4.890;2022-09-09T09:59:38;100578.13;;;18.55;100.00
47260;BME280;32999;52.412;4.890;2022-09-09T10:04:42;100552.03;;;18.49;100.00
47260;BME280;32999;52.412;4.890;2022-09-09T10:09:44;100569.81;;;18.73;100.00
47260;BME280;32999;52.412;4.890;2022-09-09T10:14:52;100588.97;;;18.55;100.00
47260;BME280;32999;52.412;4.890;2022-09-09T10:20:12;100592.38;;;19.73;100.00
47260;BME280;32999;52.412;4.890;2022-09-09T10:25:24;100593.28;;;20.91;100.00
47260;BME280;32999;52.412;4.890;2022-09-09T10:30:36;100570.00;;;20.68;100.00
47260;BME280;32999;52.412;4.890;2022-09-09T10:35:51;100478.09;;;19.42;100.00
47260;BME280;32999;52.412;4.890;2022-09-09T10:41:11;100454.78;;;18.76;100.00
47260;BME280;32999;52.412;4.890;2022-09-09T10:46:19;100561.25;;;19.58;100.00
47260;BME280;32999;52.412;4.890;2022-09-09T10:51:33;100582.00;;;20.18;100.00
47260;BME280;32999;52.412;4.890;2022-09-09T10:56:38;100591.81;;;20.46;100.00
47260;BME280;32999;52.412;4.890;2022-09-09T11:01:43;100522.81;;;20.79;100.00
47260;BME280;32999;52.412;4.890;2022-09-09T11:06:54;100588.06;;;21.79;100.00
47260;BME280;32999;52.412;4.890;2022-09-09T11:11:57;100576.16;;;21.95;100.00
47260;BME280;32999;52.412;4.890;2022-09-09T11:17:02;100486.09;;;21.19;100.00
47260;BME280;32999;52.412;4.890;2022-09-09T11:22:08;100522.22;;;21.14;100.00
47260;BME280;32999;52.412;4.890;2022-09-09T11:27:19;100568.41;;;21.51;100.00
47260;BME280;32999;52.412;4.890;2022-09-09T11:32:47;100571.34;;;20.65;100.00
47260;BME280;32999;52.412;4.890;2022-09-09T11:38:08;100561.09;;;20.41;100.00
47260;BME280;32999;52.412;4.890;2022-09-09T11:43:21;100576.16;;;20.31;100.00
47260;BME280;32999;52.412;4.890;2022-09-09T11:48:29;100514.94;;;19.87;100.00
47260;BME280;32999;52.412;4.890;2022-09-09T11:53:34;100596.22;;;20.25;100.00
47260;BME280;32999;52.412;4.890;2022-09-09T11:58:42;100521.78;;;19.67;100.00
47260;BME280;32999;52.412;4.890;2022-09-09T12:03:47;100525.91;;;19.70;100.00
47260;BME280;32999;52.412;4.890;2022-09-09T12:08:53;100596.31;;;19.65;100.00
47260;BME280;32999;52.412;4.890;2022-09-09T12:14:00;100559.22;;;19.27;100.00
47260;BME280;32999;52.412;4.890;2022-09-09T12:19:13;100542.78;;;19.77;100.00
47260;BME280;32999;52.412;4.890;2022-09-09T12:24:20;100523.38;;;19.63;100.00
47260;BME280;32999;52.412;4.890;2022-09-09T12:29:28;100549.06;;;21.05;100.00
47260;BME280;32999;52.412;4.890;2022-09-09T12:34:38;100517.75;;;21.40;100.00
47260;BME280;32999;52.412;4.890;2022-09-09T12:39:45;100461.38;;;20.68;100.00
47260;BME280;32999;52.412;4.890;2022-09-09T12:44:53;100564.59;;;21.52;100.00
47260;BME280;32999;52.412;4.890;2022-09-09T12:49:55;100537.72;;;20.71;100.00
47260;BME280;32999;52.412;4.890;2022-09-09T12:55:01;100467.38;;;20.01;100.00
47260;BME280;32999;52.412;4.890;2022-09-09T13:00:06;100560.53;;;20.38;100.00
47260;BME280;32999;52.412;4.890;2022-09-09T13:05:15;100577.47;;;19.15;100.00
47260;BME280;32999;52.412;4.890;2022-09-09T13:10:26;100558.47;;;18.76;100.00
47260;BME280;32999;52.412;4.890;2022-09-09T13:15:30;100539.72;;;18.58;100.00
47260;BME280;32999;52.412;4.890;2022-09-09T13:20:32;100510.38;;;18.50;100.00
47260;BME280;32999;52.412;4.890;2022-09-09T13:25:35;100498.78;;;19.05;100.00
47260;BME280;32999;52.412;4.890;2022-09-09T13:30:37;100510.03;;;19.84;100.00
47260;BME280;32999;52.412;4.890;2022-09-09T13:35:46;100573.03;;;20.40;100.00
47260;BME280;32999;52.412;4.890;2022-09-09T13:40:57;100560.69;;;20.32;100.00
47260;BME280;32999;52.412;4.890;2022-09-09T13:46:03;100499.78;;;20.18;100.00
47260;BME280;32999;52.412;4.890;2022-09-09T13:51:32;100515.84;;;20.51;100.00
47260;BME280;32999;52.412;4.890;2022-09-09T13:56:28;100485.50;;;20.27;100.00
47260;BME280;32999;52.412;4.890;2022-09-09T14:01:30;100585.34;;;20.84;100.00
47260;BME280;32999;52.412;4.890;2022-09-09T14:06:35;100442.38;;;19.99;100.00
47260;BME280;32999;52.412;4.890;2022-09-09T14:11:41;100565.56;;;20.57;100.00
47260;BME280;32999;52.412;4.890;2022-09-09T14:16:43;100573.41;;;20.85;100.00
47260;BME280;32999;52.412;4.890;2022-09-09T14:21:45;100561.78;;;21.37;100.00
47260;BME280;32999;52.412;4.890;2022-09-09T14:27:00;100577.03;;;21.43;100.00
47260;BME280;32999;52.412;4.890;2022-09-09T14:32:06;100575.22;;;21.64;100.00
47260;BME280;32999;52.412;4.890;2022-09-09T14:37:08;100571.03;;;21.36;100.00
47260;BME280;32999;52.412;4.890;2022-09-09T14:42:11;100566.91;;;21.28;100.00
47260;BME280;32999;52.412;4.890;2022-09-09T14:47:13;100578.19;;;21.10;100.00
47260;BME280;32999;52.412;4.890;2022-09-09T14:52:15;100574.44;;;20.79;100.00
47260;BME280;32999;52.412;4.890;2022-09-09T14:57:19;100579.94;;;20.30;100.00
47260;BME280;32999;52.412;4.890;2022-09-09T15:02:24;100578.88;;;20.31;100.00
47260;BME280;32999;52.412;4.890;2022-09-09T15:07:28;100582.81;;;19.92;100.00
47260;BME280;32999;52.412;4.890;2022-09-09T15:12:35;100592.75;;;20.08;100.00
47260;BME280;32999;52.412;4.890;2022-09-09T15:17:39;100582.97;;;20.34;100.00
47260;BME280;32999;52.412;4.890;2022-09-09T15:22:41;100593.88;;;20.12;100.00
47260;BME280;32999;52.412;4.890;2022-09-09T15:27:47;100611.19;;;20.06;100.00
47260;BME280;32999;52.412;4.890;2022-09-09T15:32:49;100527.63;;;19.16;100.00
47260;BME280;32999;52.412;4.890;2022-09-09T15:37:52;100581.56;;;19.17;100.00
47260;BME280;32999;52.412;4.890;2022-09-09T15:42:57;100605.78;;;19.07;100.00
47260;BME280;32999;52.412;4.890;2022-09-09T15:48:04;100626.81;;;18.83;100.00
47260;BME280;32999;52.412;4.890;2022-09-09T15:53:05;100620.22;;;18.34;100.00
47260;BME280;32999;52.412;4.890;2022-09-09T15:58:09;100645.03;;;18.14;100.00
47260;BME280;32999;52.412;4.890;2022-09-09T16:03:12;100654.59;;;18.05;100.00
47260;BME280;32999;52.412;4.890;2022-09-09T16:08:14;100650.28;;;17.92;100.00
47260;BME280;32999;52.412;4.890;2022-09-09T16:13:19;100648.78;;;18.13;100.00
47260;BME280;32999;52.412;4.890;2022-09-09T16:18:21;100637.47;;;17.88;100.00
47260;BME280;32999;52.412;4.890;2022-09-09T16:23:23;100583.47;;;17.53;100.00
47260;BME280;32999;52.412;4.890;2022-09-09T16:28:26;100591.31;;;17.78;100.00
47260;BME280;32999;52.412;4.890;2022-09-09T16:33:28;100604.47;;;17.74;100.00
47260;BME280;32999;52.412;4.890;2022-09-09T16:38:30;100656.25;;;18.06;100.00
47260;BME280;32999;52.412;4.890;2022-09-09T16:43:35;100549.66;;;17.39;100.00
47260;BME280;32999;52.412;4.890;2022-09-09T16:48:37;100658.53;;;18.14;100.00
47260;BME280;32999;52.412;4.890;2022-09-09T16:53:39;100654.50;;;18.00;100.00
47260;BME280;32999;52.412;4.890;2022-09-09T16:58:43;100582.88;;;17.51;100.00
47260;BME280;32999;52.412;4.890;2022-09-09T17:03:45;100643.91;;;17.98;100.00
47260;BME280;32999;52.412;4.890;2022-09-09T17:08:53;100647.31;;;17.94;100.00
47260;BME280;32999;52.412;4.890;2022-09-09T17:13:57;100629.59;;;17.86;100.00
47260;BME280;32999;52.412;4.890;2022-09-09T17:18:59;100684.34;;;18.05;100.00
47260;BME280;32999;52.412;4.890;2022-09-09T17:24:03;100717.22;;;18.14;100.00
47260;BME280;32999;52.412;4.890;2022-09-09T17:29:06;100644.34;;;17.55;100.00
47260;BME280;32999;52.412;4.890;2022-09-09T17:34:08;100560.03;;;16.95;100.00
47260;BME280;32999;52.412;4.890;2022-09-09T17:39:10;100648.44;;;17.46;100.00
47260;BME280;32999;52.412;4.890;2022-09-09T17:44:14;100711.53;;;17.98;100.00
47260;BME280;32999;52.412;4.890;2022-09-09T17:49:16;100721.75;;;17.96;100.00
47260;BME280;32999;52.412;4.890;2022-09-09T17:54:20;100727.06;;;17.80;100.00
47260;BME280;32999;52.412;4.890;2022-09-09T17:59:23;100716.00;;;17.70;100.00
47260;BME280;32999;52.412;4.890;2022-09-09T18:04:25;100651.84;;;17.07;100.00
47260;BME280;32999;52.412;4.890;2022-09-09T18:09:27;100736.69;;;17.52;100.00
47260;BME280;32999;52.412;4.890;2022-09-09T18:14:31;100692.47;;;17.35;100.00
47260;BME280;32999;52.412;4.890;2022-09-09T18:19:33;100684.59;;;17.33;100.00
47260;BME280;32999;52.412;4.890;2022-09-09T18:24:35;100640.09;;;17.01;100.00
47260;BME280;32999;52.412;4.890;2022-09-09T18:29:39;100678.97;;;17.12;100.00
47260;BME280;32999;52.412;4.890;2022-09-09T18:34:41;100739.94;;;17.43;100.00
47260;BME280;32999;52.412;4.890;2022-09-09T18:39:42;100661.47;;;17.03;100.00
47260;BME280;32999;52.412;4.890;2022-09-09T18:44:45;100710.78;;;17.10;100.00
47260;BME280;32999;52.412;4.890;2022-09-09T18:49:47;100770.75;;;17.53;100.00
47260;BME280;32999;52.412;4.890;2022-09-09T18:54:49;100782.59;;;17.64;100.00
47260;BME280;32999;52.412;4.890;2022-09-09T18:59:53;100703.41;;;17.05;100.00
47260;BME280;32999;52.412;4.890;2022-09-09T19:04:55;100774.25;;;17.42;100.00
47260;BME280;32999;52.412;4.890;2022-09-09T19:09:57;100701.47;;;16.82;100.00
47260;BME280;32999;52.412;4.890;2022-09-09T19:15:00;100735.38;;;16.90;100.00
47260;BME280;32999;52.412;4.890;2022-09-09T19:20:01;100787.47;;;17.20;100.00
47260;BME280;32999;52.412;4.890;2022-09-09T19:25:04;100669.25;;;16.39;100.00
47260;BME280;32999;52.412;4.890;2022-09-09T19:30:08;100818.78;;;17.10;100.00
47260;BME280;32999;52.412;4.890;2022-09-09T19:35:10;100816.59;;;17.18;100.00
47260;BME280;32999;52.412;4.890;2022-09-09T19:40:12;100831.84;;;17.13;100.00
47260;BME280;32999;52.412;4.890;2022-09-09T19:45:16;100821.38;;;17.05;100.00
47260;BME280;32999;52.412;4.890;2022-09-09T19:50:17;100810.91;;;17.08;100.00
47260;BME280;32999;52.412;4.890;2022-09-09T19:55:19;100827.25;;;17.13;100.00
47260;BME280;32999;52.412;4.890;2022-09-09T20:00:22;100835.94;;;17.04;100.00
47260;BME280;32999;52.412;4.890;2022-09-09T20:05:23;100712.22;;;16.22;100.00
47260;BME280;32999;52.412;4.890;2022-09-09T20:10:25;100764.91;;;16.73;100.00
47260;BME280;32999;52.412;4.890;2022-09-09T20:15:28;100814.94;;;16.87;100.00
47260;BME280;32999;52.412;4.890;2022-09-09T20:20:30;100702.03;;;16.24;100.00
47260;BME280;32999;52.412;4.890;2022-09-09T20:25:34;100834.88;;;17.05;100.00
47260;BME280;32999;52.412;4.890;2022-09-09T20:30:37;100775.78;;;16.66;100.00
47260;BME280;32999;52.412;4.890;2022-09-09T20:35:39;100855.44;;;17.06;100.00
47260;BME280;32999;52.412;4.890;2022-09-09T20:40:41;100749.13;;;16.40;100.00
47260;BME280;32999;52.412;4.890;2022-09-09T20:45:44;100810.59;;;16.86;100.00
47260;BME280;32999;52.412;4.890;2022-09-09T20:50:45;100758.69;;;16.54;100.00
47260;BME280;32999;52.412;4.890;2022-09-09T20:55:47;100757.81;;;16.42;100.00
47260;BME280;32999;52.412;4.890;2022-09-09T21:00:51;100840.19;;;16.81;100.00
47260;BME280;32999;52.412;4.890;2022-09-09T21:05:54;100853.94;;;16.91;100.00
47260;BME280;32999;52.412;4.890;2022-09-09T21:10:57;100851.00;;;16.93;100.00
47260;BME280;32999;52.412;4.890;2022-09-09T21:16:02;100804.72;;;16.78;100.00
47260;BME280;32999;52.412;4.890;2022-09-09T21:21:06;100823.47;;;17.03;100.00
47260;BME280;32999;52.412;4.890;2022-09-09T21:26:08;100827.31;;;16.95;100.00
47260;BME280;32999;52.412;4.890;2022-09-09T21:31:15;100848.00;;;17.01;100.00
47260;BME280;32999;52.412;4.890;2022-09-09T21:36:18;100851.25;;;16.91;100.00
47260;BME280;32999;52.412;4.890;2022-09-09T21:41:19;100761.84;;;16.51;100.00
47260;BME280;32999;52.412;4.890;2022-09-09T21:46:23;100797.53;;;16.72;100.00
47260;BME280;32999;52.412;4.890;2022-09-09T21:51:26;100813.19;;;16.81;100.00
47260;BME280;32999;52.412;4.890;2022-09-09T21:56:28;100874.13;;;17.19;100.00
47260;BME280;32999;52.412;4.890;2022-09-09T22:01:31;100885.53;;;17.21;100.00
47260;BME280;32999;52.412;4.890;2022-09-09T22:06:46;100829.03;;;16.89;100.00
47260;BME280;32999;52.412;4.890;2022-09-09T22:11:49;100869.59;;;17.01;100.00
47260;BME280;32999;52.412;4.890;2022-09-09T22:16:55;100849.94;;;16.82;100.00
47260;BME280;32999;52.412;4.890;2022-09-09T22:21:57;100840.22;;;16.93;100.00
47260;BME280;32999;52.412;4.890;2022-09-09T22:26:59;100776.66;;;16.60;100.00
47260;BME280;32999;52.412;4.890;2022-09-09T22:32:04;100867.41;;;17.10;100.00
47260;BME280;32999;52.412;4.890;2022-09-09T22:37:08;100802.38;;;16.63;100.00
47260;BME280;32999;52.412;4.890;2022-09-09T22:42:09;100860.25;;;16.85;100.00
47260;BME280;32999;52.412;4.890;2022-09-09T22:47:13;100864.00;;;17.03;100.00
47260;BME280;32999;52.412;4.890;2022-09-09T22:52:14;100764.41;;;16.46;100.00
47260;BME280;32999;52.412;4.890;2022-09-09T22:57:16;100858.00;;;16.64;100.00
47260;BME280;32999;52.412;4.890;2022-09-09T23:02:19;100853.97;;;16.55;100.00
47260;BME280;32999;52.412;4.890;2022-09-09T23:07:21;100842.91;;;16.38;100.00
47260;BME280;32999;52.412;4.890;2022-09-09T23:12:23;100755.16;;;16.06;100.00
47260;BME280;32999;52.412;4.890;2022-09-09T23:17:26;100867.28;;;16.86;100.00
47260;BME280;32999;52.412;4.890;2022-09-09T23:22:28;100873.16;;;16.65;100.00
47260;BME280;32999;52.412;4.890;2022-09-09T23:27:33;100819.63;;;16.44;100.00
47260;BME280;32999;52.412;4.890;2022-09-09T23:32:38;100844.22;;;16.72;100.00
47260;BME280;32999;52.412;4.890;2022-09-09T23:37:40;100807.03;;;16.38;100.00
47260;BME280;32999;52.412;4.890;2022-09-09T23:42:42;100752.94;;;15.96;100.00
47260;BME280;32999;52.412;4.890;2022-09-09T23:47:47;100847.38;;;16.69;100.00
47260;BME280;32999;52.412;4.890;2022-09-09T23:52:49;100865.22;;;16.70;100.00
47260;BME280;32999;52.412;4.890;2022-09-09T23:57:51;100719.78;;;15.77;100.00
